Terminal Aerodrome Forecast
Issued by NWS Twin Cities, MN

Home | Current Version | Previous Version | Graphics & Text | Print | Product List | Glossary On
Versions: 1 2 3 4 5 6 7 8 9 10 11 12 13 14
102
FTUS43 KMPX 011126
TAFEAU
TAF
KEAU 011126Z 0112/0212 30008KT P6SM SCT006 OVC012
     FM012200 29006KT P6SM SCT015 BKN025 BKN040=

USA.gov is the U.S. government's official web portal to all federal, state and local government web resources and services.